Eastport, Michigan
Current Conditions -  °F | °C
As of 12:38 AM on Thursday 23 Oct 2014 (Local Time) from KACB Reporting Station
Haze Haze  
Wind Chill: 29°   Ceiling: 200
Heat Index: 29°   Visibility: 1.2mi
Dew Point: 29°   Wind: 0mph
Humidity: 96%   Direction: NA
Pressure: 30.29"   Gusts: NA
Location:  45.11°N, 85.35°W
Report Text: KACB 230438Z AUTO 00000KT 1 1/4SM BR BKN002 M01/M02 A3029 RMK AO2 T10141019
Loading
Personal Weather Stations






























Interactive Weather Map
Tropical Storm Tracking
New forecast layout! Learn more

10-Day Weather Forecast

Advertisements
Track Severe Weather on mobile